Time;durP1;ratioP1;P1;durP2;ratioP2;P2;SDS_P1;SDS_P2;PMS_P1;PMS_P2;Temp;Humidity;BMP_temperature;BMP_pressure;BME280_temperature;BME280_humidity;BME280_pressure;Samples;Min_cycle;Max_cycle;Signal;HPM_P1;HPM_P2
2022/08/29 00:00:42;;;;;;;4.85;3.03;;;20.30;99.90;;;;;;5013225;28;20045;-68
2022/08/29 00:03:46;;;;;;;5.47;3.53;;;20.30;99.90;;;;;;5013190;28;20381;-67
2022/08/29 00:06:50;;;;;;;4.28;2.90;;;20.30;99.90;;;;;;5013345;28;20504;-68
2022/08/29 00:09:54;;;;;;;4.07;2.47;;;20.20;99.90;;;;;;5012949;28;20041;-68
2022/08/29 00:12:58;;;;;;;6.57;2.85;;;20.10;99.90;;;;;;5012838;28;20280;-68
2022/08/29 00:16:21;;;;;;;3.05;2.58;;;20.00;99.90;;;;;;5013035;28;20061;-68
2022/08/29 00:19:24;;;;;;;4.82;2.75;;;19.90;99.90;;;;;;5013167;28;20396;-68
2022/08/29 00:22:28;;;;;;;5.50;2.90;;;19.80;99.90;;;;;;5013405;28;20503;-68
2022/08/29 00:25:33;;;;;;;4.40;3.15;;;19.90;99.90;;;;;;5012071;28;20049;-68
2022/08/29 00:28:38;;;;;;;8.15;3.20;;;19.90;99.90;;;;;;5012855;28;20053;-68
2022/08/29 00:35:16;;;;;;;6.43;2.80;;;19.90;99.90;;;;;;5012456;28;20044;-68
2022/08/29 00:38:39;;;;;;;8.60;3.08;;;19.90;99.90;;;;;;5012799;28;20142;-68
2022/08/29 00:41:43;;;;;;;5.80;3.10;;;19.90;99.90;;;;;;5012244;28;20392;-68
2022/08/29 00:44:47;;;;;;;7.65;3.42;;;19.70;99.90;;;;;;5011985;28;20053;-68
2022/08/29 00:47:56;;;;;;;5.40;2.63;;;19.60;99.90;;;;;;5012600;28;20424;-68
2022/08/29 00:51:05;;;;;;;4.85;2.97;;;19.60;99.90;;;;;;5012519;28;20061;-68
2022/08/29 00:54:10;;;;;;;5.40;3.20;;;19.70;99.90;;;;;;5012116;28;20400;-68
2022/08/29 00:57:33;;;;;;;6.00;3.25;;;19.70;99.90;;;;;;5012309;28;20037;-68
2022/08/29 01:00:37;;;;;;;4.47;2.80;;;19.60;99.90;;;;;;5012132;28;20052;-68
2022/08/29 01:03:42;;;;;;;4.00;2.75;;;19.50;99.90;;;;;;5012193;28;20500;-68
2022/08/29 01:06:46;;;;;;;5.65;3.17;;;19.60;99.90;;;;;;5012569;28;20041;-68
2022/08/29 01:09:51;;;;;;;3.92;3.22;;;19.50;99.90;;;;;;5012371;28;20397;-68
2022/08/29 01:13:14;;;;;;;6.07;3.60;;;19.50;99.90;;;;;;5011697;28;20064;-68
2022/08/29 01:16:19;;;;;;;5.43;3.00;;;19.40;99.90;;;;;;5012003;28;20048;-67
2022/08/29 01:19:44;;;;;;;9.90;3.85;;;19.40;99.90;;;;;;5011738;28;20053;-68
2022/08/29 01:22:51;;;;;;;6.95;2.70;;;19.30;99.90;;;;;;5011840;28;20033;-68
2022/08/29 01:25:57;;;;;;;7.68;3.92;;;19.30;99.90;;;;;;5011710;28;20049;-68
2022/08/29 01:29:01;;;;;;;6.35;3.50;;;19.30;99.90;;;;;;5011723;28;20049;-68
2022/08/29 01:32:05;;;;;;;7.38;3.17;;;19.30;99.90;;;;;;5011744;28;20041;-68
2022/08/29 01:35:10;;;;;;;7.00;3.90;;;19.30;99.90;;;;;;5011065;28;20045;-69
2022/08/29 01:38:26;;;;;;;6.75;3.80;;;19.30;99.90;;;;;;5010828;28;20385;-68
2022/08/29 01:41:31;;;;;;;4.55;3.42;;;19.30;99.90;;;;;;5011632;28;20049;-68
2022/08/29 01:44:54;;;;;;;5.38;3.28;;;19.20;99.90;;;;;;5011867;28;20493;-68
2022/08/29 01:47:57;;;;;;;6.40;3.53;;;19.20;99.90;;;;;;5011905;28;20049;-68
2022/08/29 01:51:01;;;;;;;8.70;3.75;;;19.10;99.90;;;;;;5011094;28;20052;-68
2022/08/29 01:54:25;;;;;;;6.80;3.60;;;19.10;99.90;;;;;;5011020;28;20397;-68
2022/08/29 01:57:28;;;;;;;4.68;3.58;;;19.20;99.90;;;;;;5011708;28;20041;-68
2022/08/29 02:00:33;;;;;;;12.73;3.95;;;19.20;99.90;;;;;;5010828;28;20049;-68
2022/08/29 02:07:00;;;;;;;6.00;3.80;;;19.10;99.90;;;;;;5010773;28;20500;-68
2022/08/29 02:10:05;;;;;;;9.20;4.45;;;19.00;99.90;;;;;;5010993;28;20519;-68
2022/08/29 02:13:10;;;;;;;6.03;4.43;;;18.90;99.90;;;;;;5010835;28;20388;-68
2022/08/29 02:16:14;;;;;;;8.32;4.60;;;18.90;99.90;;;;;;5010858;28;20052;-68
2022/08/29 02:19:19;;;;;;;9.15;4.30;;;18.80;99.90;;;;;;5010650;28;20041;-68
2022/08/29 02:22:23;;;;;;;12.75;5.25;;;18.80;99.90;;;;;;5010596;28;20041;-68
2022/08/29 02:25:42;;;;;;;7.45;4.32;;;18.80;99.90;;;;;;5010708;28;20388;-68
2022/08/29 02:28:50;;;;;;;8.50;5.15;;;18.80;99.90;;;;;;5010696;28;20029;-68
2022/08/29 02:31:55;;;;;;;8.75;5.32;;;18.60;99.90;;;;;;5009951;28;20049;-69
2022/08/29 02:34:58;;;;;;;5.80;4.70;;;18.50;99.90;;;;;;5010504;28;20040;-69
2022/08/29 02:38:22;;;;;;;8.60;5.18;;;18.50;99.90;;;;;;5010376;28;20072;-68
2022/08/29 02:41:26;;;;;;;6.95;5.07;;;18.50;99.90;;;;;;5010054;28;20045;-68
2022/08/29 02:44:30;;;;;;;8.63;4.43;;;18.40;99.90;;;;;;5010235;28;20045;-68
2022/08/29 02:47:53;;;;;;;8.10;5.20;;;18.40;99.90;;;;;;5010343;28;20061;-68
2022/08/29 02:50:58;;;;;;;8.25;5.40;;;18.40;99.90;;;;;;5010348;28;20045;-68
2022/08/29 02:54:02;;;;;;;11.48;4.80;;;18.40;99.90;;;;;;5009911;28;20056;-68
2022/08/29 02:57:07;;;;;;;6.75;4.97;;;18.40;99.90;;;;;;5010378;28;20060;-68
2022/08/29 03:00:32;;;;;;;9.55;5.07;;;18.40;99.90;;;;;;5010406;28;20057;-68
2022/08/29 03:06:58;;;;;;;;;;;18.40;99.90;;;;;;5010449;28;20049;-68
2022/08/29 03:10:04;;;;;;;9.45;4.78;;;18.40;99.90;;;;;;5010545;28;19921;-66
2022/08/29 03:16:32;;;;;;;6.70;5.00;;;18.40;99.90;;;;;;5009956;28;20396;-67
2022/08/29 03:19:35;;;;;;;7.20;4.75;;;18.50;99.90;;;;;;5009805;28;20049;-66
2022/08/29 03:26:03;;;;;;;8.63;4.55;;;18.50;99.90;;;;;;5010155;28;20049;-68
2022/08/29 03:35:53;;;;;;;8.25;4.30;;;18.40;99.90;;;;;;5009859;28;20041;-68
2022/08/29 03:39:17;;;;;;;7.15;4.63;;;18.40;99.90;;;;;;5009821;28;20416;-68
2022/08/29 03:42:21;;;;;;;12.85;6.07;;;18.40;99.90;;;;;;5010212;28;20060;-68
2022/08/29 03:45:25;;;;;;;5.97;4.93;;;18.40;99.90;;;;;;5009695;28;20041;-68
2022/08/29 03:48:29;;;;;;;6.78;4.80;;;18.40;99.90;;;;;;5010015;28;20041;-68
2022/08/29 03:51:35;;;;;;;8.52;5.05;;;18.40;99.90;;;;;;5010102;28;20057;-68
2022/08/29 03:54:39;;;;;;;8.77;4.93;;;18.30;99.90;;;;;;5009496;28;20512;-68
2022/08/29 03:57:44;;;;;;;12.57;5.47;;;18.30;99.90;;;;;;5010073;28;20392;-68
2022/08/29 04:01:06;;;;;;;10.65;6.03;;;18.20;99.90;;;;;;5011023;28;20044;-68
2022/08/29 04:05:05;;;;;;;10.15;7.60;;;18.00;99.90;;;;;;5012595;28;20399;-68
2022/08/29 04:07:58;;;;;;;11.65;6.20;;;17.80;99.90;;;;;;5013651;28;20052;-68
2022/08/29 04:11:09;;;;;;;12.63;6.15;;;17.80;99.90;;;;;;5013302;28;20061;-68
2022/08/29 04:14:13;;;;;;;11.25;6.10;;;17.70;99.90;;;;;;5012274;28;20511;-68
2022/08/29 04:17:17;;;;;;;12.25;5.97;;;17.70;99.90;;;;;;5013004;28;20053;-68
2022/08/29 04:20:25;;;;;;;9.90;6.22;;;17.70;99.90;;;;;;5012990;28;20056;-68
2022/08/29 04:23:30;;;;;;;11.23;6.88;;;17.70;99.90;;;;;;5012423;28;20535;-67
2022/08/29 04:26:35;;;;;;;10.63;7.30;;;17.70;99.90;;;;;;5013133;28;20057;-68
2022/08/29 04:29:39;;;;;;;15.32;8.20;;;17.70;99.90;;;;;;5012693;28;20060;-68
2022/08/29 04:32:44;;;;;;;21.30;9.77;;;17.70;99.90;;;;;;5008836;28;20053;-68
2022/08/29 04:35:48;;;;;;;14.52;8.27;;;17.60;99.90;;;;;;5012906;28;20041;-68
2022/08/29 04:38:53;;;;;;;15.57;8.15;;;17.50;99.90;;;;;;5012582;28;20041;-68
2022/08/29 04:41:57;;;;;;;14.57;9.90;;;17.40;99.90;;;;;;5012405;28;20129;-70
2022/08/29 04:45:01;;;;;;;36.60;13.25;;;17.40;99.90;;;;;;5010486;28;20480;-69
2022/08/29 04:48:07;;;;;;;19.00;11.88;;;17.30;99.90;;;;;;5012916;28;20045;-68
2022/08/29 04:51:11;;;;;;;16.75;10.57;;;17.30;99.90;;;;;;5012214;28;20040;-68
2022/08/29 04:54:15;;;;;;;15.02;10.55;;;17.30;99.90;;;;;;5012424;28;20056;-68
2022/08/29 04:57:20;;;;;;;15.18;10.52;;;17.30;99.90;;;;;;5012234;28;20048;-68
2022/08/29 05:00:26;;;;;;;14.00;10.30;;;17.40;99.90;;;;;;5012495;28;20076;-68
2022/08/29 05:03:31;;;;;;;20.77;9.80;;;17.50;99.90;;;;;;5012154;28;20068;-68
2022/08/29 05:07:32;;;;;;;14.43;7.85;;;17.50;99.90;;;;;;5013106;28;20037;-68
2022/08/29 05:10:36;;;;;;;11.13;7.43;;;17.70;99.90;;;;;;5012728;28;20052;-68
2022/08/29 05:13:40;;;;;;;10.73;7.50;;;17.80;99.90;;;;;;5011625;28;20048;-68
2022/08/29 05:16:44;;;;;;;11.90;7.38;;;18.00;99.90;;;;;;5012171;28;20068;-68
2022/08/29 05:19:48;;;;;;;11.20;7.20;;;18.00;99.90;;;;;;5011832;28;20519;-68
2022/08/29 05:22:52;;;;;;;10.82;7.18;;;18.10;99.90;;;;;;5012062;28;20041;-68
2022/08/29 05:25:59;;;;;;;11.82;6.88;;;18.20;99.90;;;;;;5012003;28;20049;-68
2022/08/29 05:29:06;;;;;;;7.53;5.18;;;20.10;99.90;;;;;;5012173;28;20045;-69
2022/08/29 05:32:13;;;;;;;7.97;4.55;;;23.10;99.90;;;;;;5010524;28;20045;-69
2022/08/29 05:35:17;;;;;;;15.93;4.25;;;25.50;99.90;;;;;;5011317;28;20049;-68
2022/08/29 05:38:21;;;;;;;8.27;4.18;;;27.00;99.90;;;;;;5011666;28;20052;-69
2022/08/29 05:41:45;;;;;;;8.40;3.72;;;28.30;99.90;;;;;;5011469;28;20052;-69
2022/08/29 05:44:49;;;;;;;9.45;3.70;;;29.20;99.90;;;;;;5011366;28;20389;-69
2022/08/29 05:47:54;;;;;;;12.95;3.03;;;29.40;99.90;;;;;;5011848;28;20049;-68
2022/08/29 05:50:59;;;;;;;4.88;2.65;;;29.80;99.90;;;;;;5011938;28;20121;-68
2022/08/29 05:54:03;;;;;;;10.13;3.22;;;30.40;99.90;;;;;;5011049;28;20516;-68
2022/08/29 05:57:10;;;;;;;8.70;3.05;;;30.70;99.90;;;;;;5011714;28;20340;-68
2022/08/29 06:00:15;;;;;;;7.95;3.63;;;31.50;99.90;;;;;;5011311;28;20307;-68
2022/08/29 06:03:19;;;;;;;5.55;2.35;;;31.90;99.90;;;;;;5010870;28;20045;-68
2022/08/29 06:06:27;;;;;;;5.78;2.85;;;32.40;99.90;;;;;;5011592;28;20041;-68
2022/08/29 06:09:51;;;;;;;4.53;2.30;;;32.80;99.90;;;;;;5011815;28;20029;-69
2022/08/29 06:12:55;;;;;;;5.40;2.10;;;33.00;99.90;;;;;;5011432;28;20049;-68
2022/08/29 06:15:59;;;;;;;6.78;2.40;;;32.30;99.90;;;;;;5011143;28;20060;-69
2022/08/29 06:19:03;;;;;;;6.85;2.42;;;29.40;99.90;;;;;;5011088;28;20041;-68
2022/08/29 06:22:08;;;;;;;7.05;2.65;;;27.40;99.90;;;;;;5010770;28;20044;-68
2022/08/29 06:25:12;;;;;;;4.93;2.78;;;27.30;99.90;;;;;;5010570;28;20040;-68
2022/08/29 06:28:17;;;;;;;4.55;2.40;;;28.50;99.90;;;;;;5010830;28;20037;-68
2022/08/29 06:31:25;;;;;;;3.05;2.08;;;28.70;99.90;;;;;;5009508;28;20060;-68
2022/08/29 06:34:30;;;;;;;7.28;2.40;;;29.50;99.90;;;;;;5010147;28;20385;-68
2022/08/29 06:37:35;;;;;;;3.83;2.03;;;30.40;99.90;;;;;;5011344;28;20057;-68
2022/08/29 06:40:39;;;;;;;6.82;2.38;;;31.70;99.90;;;;;;5010720;28;20052;-68
2022/08/29 06:43:44;;;;;;;6.60;2.42;;;32.10;99.90;;;;;;5009165;28;20044;-69
2022/08/29 06:47:08;;;;;;;5.93;2.38;;;32.50;99.90;;;;;;5015235;28;20036;-68
2022/08/29 06:50:31;;;;;;;3.42;1.73;;;32.60;99.40;;;;;;5018138;28;20045;-68
2022/08/29 06:53:34;;;;;;;8.65;2.30;;;33.10;98.70;;;;;;5029340;28;20039;-69
2022/08/29 06:56:39;;;;;;;3.85;1.70;;;33.30;98.50;;;;;;5029762;28;20041;-68
2022/08/29 06:59:43;;;;;;;4.85;1.67;;;34.10;97.60;;;;;;5020686;28;20045;-69
2022/08/29 07:03:06;;;;;;;6.15;1.63;;;34.80;96.40;;;;;;5009988;28;20061;-68
2022/08/29 07:06:11;;;;;;;8.85;2.13;;;35.00;95.80;;;;;;5012372;28;20048;-68
2022/08/29 07:09:15;;;;;;;7.95;1.50;;;35.10;95.80;;;;;;5017924;28;20516;-69
2022/08/29 07:12:20;;;;;;;6.82;1.58;;;35.40;95.00;;;;;;5018433;28;20041;-68
2022/08/29 07:15:24;;;;;;;5.97;1.67;;;35.30;94.40;;;;;;5018119;28;20373;-69
2022/08/29 07:18:28;;;;;;;7.78;2.00;;;35.40;94.00;;;;;;5013390;28;20561;-69
2022/08/29 07:21:33;;;;;;;6.32;1.50;;;35.50;93.50;;;;;;5019007;28;20036;-67
2022/08/29 07:24:57;;;;;;;2.65;1.48;;;35.70;93.80;;;;;;5019934;28;20496;-68
2022/08/29 07:28:01;;;;;;;5.60;1.70;;;36.30;93.40;;;;;;5012887;28;20041;-67
2022/08/29 07:31:06;;;;;;;5.15;1.80;;;36.70;92.60;;;;;;5014630;28;20052;-67
2022/08/29 07:37:35;;;;;;;8.48;1.25;;;36.90;91.60;;;;;;5021834;28;20044;-68
2022/08/29 07:40:39;;;;;;;5.28;1.27;;;37.50;91.10;;;;;;5016365;28;20064;-68
2022/08/29 07:43:44;;;;;;;5.85;1.30;;;38.10;90.40;;;;;;5014371;28;20044;-67
2022/08/29 07:50:29;;;;;;;5.28;1.40;;;33.70;91.60;;;;;;5026017;28;20049;-68
2022/08/29 07:53:34;;;;;;;3.78;1.20;;;34.20;92.90;;;;;;5016196;28;20041;-67
2022/08/29 07:56:41;;;;;;;4.38;1.20;;;35.30;91.40;;;;;;5015473;28;20120;-68
2022/08/29 07:59:45;;;;;;;4.57;1.33;;;36.90;91.00;;;;;;5021479;28;20049;-67
2022/08/29 08:02:50;;;;;;;3.25;1.10;;;37.40;90.40;;;;;;5019653;28;20515;-68
2022/08/29 08:05:54;;;;;;;6.25;1.10;;;35.60;90.70;;;;;;5025268;28;20040;-68
2022/08/29 08:09:00;;;;;;;4.55;1.13;;;35.60;90.70;;;;;;5025458;28;20043;-68
2022/08/29 08:12:05;;;;;;;4.65;1.13;;;37.70;90.10;;;;;;5020190;28;20041;-67
2022/08/29 08:15:10;;;;;;;4.47;1.20;;;39.00;88.30;;;;;;5025714;28;20044;-67
2022/08/29 08:18:35;;;;;;;4.47;1.58;;;39.70;86.20;;;;;;5025136;28;20045;-67
2022/08/29 08:21:40;;;;;;;3.53;1.20;;;40.30;84.40;;;;;;5016939;28;20407;-67
2022/08/29 08:24:44;;;;;;;2.83;1.20;;;40.50;84.30;;;;;;5015614;28;20048;-68
2022/08/29 08:27:49;;;;;;;4.38;1.33;;;41.50;82.80;;;;;;5016156;28;20041;-68
2022/08/29 08:30:53;;;;;;;2.22;1.00;;;42.20;81.40;;;;;;5022238;28;20276;-68
2022/08/29 08:33:57;;;;;;;4.43;1.10;;;42.10;80.10;;;;;;5016544;28;20045;-67
2022/08/29 08:37:07;;;;;;;2.20;1.20;;;40.00;81.30;;;;;;5024912;28;20036;-68
2022/08/29 08:40:25;;;;;;;4.05;1.20;;;40.50;80.30;;;;;;5018536;28;20052;-68
2022/08/29 08:43:52;;;;;;;3.90;1.20;;;40.40;80.90;;;;;;5023976;28;20052;-69
2022/08/29 08:47:17;;;;;;;6.82;1.45;;;41.30;80.00;;;;;;5018201;28;20044;-68
2022/08/29 08:50:31;;;;;;;2.05;1.02;;;42.70;79.50;;;;;;5024102;28;20064;-67
2022/08/29 08:53:49;;;;;;;2.08;1.15;;;44.20;76.60;;;;;;5017572;28;20049;-69
2022/08/29 08:57:01;;;;;;;2.78;1.00;;;44.50;75.70;;;;;;5020061;28;20097;-69
2022/08/29 09:00:09;;;;;;;5.30;1.55;;;44.80;74.50;;;;;;5021071;28;20408;-70
2022/08/29 09:03:38;;;;;;;4.15;1.45;;;43.80;74.90;;;;;;5024059;28;20052;-70
2022/08/29 09:07:00;;;;;;;2.30;1.20;;;41.10;77.80;;;;;;5026189;28;20037;-69
2022/08/29 09:10:30;;;;;;;3.17;1.30;;;43.20;76.30;;;;;;5017697;28;20045;-69
2022/08/29 09:13:53;;;;;;;2.47;1.20;;;41.70;76.30;;;;;;5011504;28;20053;-69
2022/08/29 09:16:59;;;;;;;3.78;1.30;;;39.20;80.40;;;;;;5025161;28;21686;-70
2022/08/29 09:20:07;;;;;;;3.72;1.25;;;39.20;80.60;;;;;;5019051;28;20032;-71
2022/08/29 09:23:49;;;;;;;3.28;1.30;;;41.90;79.00;;;;;;5019390;28;20606;-70
2022/08/29 09:26:55;;;;;;;6.13;1.33;;;43.70;76.20;;;;;;5022170;28;20401;-69
2022/08/29 09:30:07;;;;;;;3.90;1.13;;;44.60;75.60;;;;;;5020203;28;20041;-70
2022/08/29 09:33:14;;;;;;;5.95;1.38;;;46.00;75.30;;;;;;5030531;28;20040;-70
2022/08/29 09:36:47;;;;;;;1.60;1.10;;;47.00;73.10;;;;;;5021628;28;20052;-70
2022/08/29 09:39:55;;;;;;;2.08;1.33;;;47.70;71.80;;;;;;5027821;28;20529;-71
2022/08/29 09:43:01;;;;;;;2.67;1.40;;;48.40;71.10;;;;;;5012819;28;20053;-71
2022/08/29 09:46:06;;;;;;;2.40;1.10;;;48.90;70.00;;;;;;5018362;28;20036;-70
2022/08/29 09:49:15;;;;;;;4.00;1.30;;;48.90;69.40;;;;;;5022297;28;20040;-70
2022/08/29 09:52:23;;;;;;;3.38;1.55;;;49.60;68.40;;;;;;5022584;28;20452;-70
2022/08/29 09:55:27;;;;;;;;;;;50.20;67.00;;;;;;5016156;28;21833;-70
2022/08/29 09:58:37;;;;;;;3.90;1.10;;;49.90;67.20;;;;;;5015667;28;19924;-70
2022/08/29 10:08:38;;;;;;;3.42;1.50;;;48.10;65.80;;;;;;5023689;28;20044;-71
2022/08/29 10:12:05;;;;;;;2.30;1.40;;;44.70;68.30;;;;;;5017106;28;20043;-70
2022/08/29 10:15:16;;;;;;;5.22;1.88;;;46.70;67.30;;;;;;5020081;28;20048;-70
2022/08/29 10:19:06;;;;;;;3.10;1.25;;;48.20;66.60;;;;;;5023867;28;20059;-70
2022/08/29 10:22:34;;;;;;;2.03;0.70;;;49.30;65.00;;;;;;5016732;28;20048;-71
2022/08/29 10:26:04;;;;;;;3.53;1.13;;;50.60;63.90;;;;;;5019548;28;20044;-71
2022/08/29 10:29:14;;;;;;;5.40;1.00;;;51.40;62.10;;;;;;5026558;28;20044;-71
2022/08/29 10:32:58;;;;;;;2.72;1.00;;;51.70;62.10;;;;;;5019680;28;20041;-70
2022/08/29 10:40:11;;;;;;;2.50;1.20;;;49.40;61.10;;;;;;5020260;28;20511;-69
2022/08/29 10:43:20;;;;;;;2.67;1.10;;;48.70;63.00;;;;;;5017473;28;20060;-70
2022/08/29 10:46:33;;;;;;;2.65;1.10;;;47.70;63.20;;;;;;5016207;28;20033;-69
2022/08/29 10:49:57;;;;;;;3.10;0.80;;;48.60;62.30;;;;;;5017235;28;20503;-70
2022/08/29 10:53:30;;;;;;;4.50;1.38;;;49.60;61.40;;;;;;5018874;28;20052;-70
2022/08/29 10:56:53;;;;;;;6.88;1.20;;;50.00;59.90;;;;;;5019537;28;20044;-69
2022/08/29 11:00:12;;;;;;;3.72;0.95;;;47.60;61.50;;;;;;5025281;28;20048;-69
2022/08/29 11:03:43;;;;;;;1.73;1.13;;;48.30;61.40;;;;;;5013170;28;20048;-70
2022/08/29 11:07:15;;;;;;;3.00;1.20;;;48.40;59.40;;;;;;5014472;28;20041;-71
2022/08/29 11:10:40;;;;;;;5.32;1.10;;;48.10;61.60;;;;;;5018851;28;20400;-70
2022/08/29 11:14:04;;;;;;;4.55;1.00;;;48.50;61.00;;;;;;5024694;28;20044;-70
2022/08/29 11:17:28;;;;;;;2.65;1.30;;;48.20;61.70;;;;;;5017225;28;20404;-70
2022/08/29 11:20:40;;;;;;;2.85;1.17;;;48.50;62.30;;;;;;5019746;28;20049;-70
2022/08/29 11:23:46;;;;;;;3.38;1.00;;;48.80;62.10;;;;;;5022804;28;20379;-69
2022/08/29 11:26:57;;;;;;;1.38;1.02;;;48.50;61.60;;;;;;5022871;28;20037;-70
2022/08/29 11:30:17;;;;;;;3.33;1.00;;;49.00;60.20;;;;;;5013993;28;20037;-71
2022/08/29 11:33:37;;;;;;;;;;;46.20;62.30;;;;;;5017879;28;20036;-71
2022/08/29 11:37:06;;;;;;;2.72;1.10;;;45.40;62.30;;;;;;5022993;28;20279;-70
2022/08/29 11:40:28;;;;;;;2.58;1.00;;;46.70;62.80;;;;;;5025403;28;20041;-70
2022/08/29 11:43:40;;;;;;;3.30;0.90;;;47.90;62.40;;;;;;5020911;28;20048;-70
2022/08/29 11:46:47;;;;;;;2.13;0.90;;;48.80;61.20;;;;;;5012929;28;20041;-69
2022/08/29 11:50:10;;;;;;;2.85;0.95;;;48.90;59.20;;;;;;5013780;28;20064;-69
2022/08/29 11:56:43;;;;;;;;;;;48.50;60.00;;;;;;5014031;28;20037;-70
2022/08/29 11:59:47;;;;;;;2.22;0.90;;;49.10;60.40;;;;;;5013398;28;20308;-69
2022/08/29 12:02:52;;;;;;;1.52;0.82;;;48.20;60.50;;;;;;5013099;28;20053;-71
2022/08/29 12:06:11;;;;;;;1.40;0.95;;;48.10;60.80;;;;;;5013297;28;20053;-68
2022/08/29 12:09:49;;;;;;;1.55;1.02;;;48.50;59.00;;;;;;5000903;28;20048;-69
2022/08/29 12:12:55;;;;;;;1.77;1.10;;;43.50;61.30;;;;;;5013360;28;20041;-69
2022/08/29 12:16:08;;;;;;;2.97;1.00;;;43.20;62.70;;;;;;5013470;28;20044;-69
2022/08/29 12:19:46;;;;;;;2.95;1.10;;;44.10;62.40;;;;;;5012992;28;20113;-69
2022/08/29 12:23:09;;;;;;;3.13;0.90;;;45.30;61.90;;;;;;5012583;28;20049;-71
2022/08/29 12:26:44;;;;;;;1.77;1.00;;;44.30;61.20;;;;;;5013336;28;20064;-73
2022/08/29 12:30:27;;;;;;;1.92;1.00;;;42.00;63.70;;;;;;5012691;28;20053;-70
2022/08/29 12:34:17;;;;;;;2.08;1.00;;;43.40;63.50;;;;;;5012611;28;20041;-73
2022/08/29 12:38:08;;;;;;;2.42;1.00;;;44.40;61.70;;;;;;5013175;28;20045;-71
2022/08/29 12:41:21;;;;;;;1.02;0.77;;;45.00;61.50;;;;;;5013143;28;20049;-70
2022/08/29 12:44:41;;;;;;;3.92;1.00;;;46.70;59.40;;;;;;5012412;28;20397;-70
2022/08/29 12:48:09;;;;;;;2.75;0.85;;;46.50;59.40;;;;;;5012060;28;20044;-71
2022/08/29 12:51:34;;;;;;;4.18;1.00;;;43.50;60.00;;;;;;5012655;28;20041;-70
2022/08/29 12:54:40;;;;;;;1.27;0.85;;;43.00;61.90;;;;;;5011835;28;20033;-71
2022/08/29 12:57:46;;;;;;;2.05;0.90;;;44.20;60.70;;;;;;5012512;28;20057;-71
2022/08/29 13:00:51;;;;;;;1.50;0.80;;;45.50;59.80;;;;;;5012568;28;20413;-70
2022/08/29 13:04:17;;;;;;;2.45;0.88;;;42.50;59.60;;;;;;5012027;28;20057;-71
2022/08/29 13:07:51;;;;;;;3.88;1.10;;;41.00;60.20;;;;;;5012502;28;20057;-69
2022/08/29 13:11:02;;;;;;;3.03;0.90;;;43.40;59.50;;;;;;5012462;28;20041;-70
2022/08/29 13:14:26;;;;;;;1.30;0.70;;;45.30;59.10;;;;;;5011674;28;20057;-69
2022/08/29 13:21:23;;;;;;;1.70;1.00;;;45.10;58.80;;;;;;5012256;28;20052;-71
2022/08/29 13:24:27;;;;;;;1.05;0.70;;;45.40;57.80;;;;;;5010721;28;20033;-70
2022/08/29 13:27:32;;;;;;;1.77;0.93;;;46.10;57.60;;;;;;5012062;28;20037;-70
2022/08/29 13:30:36;;;;;;;1.77;0.90;;;46.30;58.40;;;;;;5011854;28;20041;-70
2022/08/29 13:33:49;;;;;;;1.52;0.80;;;45.00;57.60;;;;;;5011013;28;20052;-71
2022/08/29 13:37:01;;;;;;;1.00;0.80;;;43.80;58.50;;;;;;5011560;28;20049;-72
2022/08/29 13:40:27;;;;;;;4.47;1.00;;;44.10;59.80;;;;;;5012332;28;20460;-72
2022/08/29 13:43:37;;;;;;;1.48;0.80;;;43.20;59.40;;;;;;5011481;28;20073;-71
2022/08/29 13:46:45;;;;;;;1.35;1.00;;;42.90;59.20;;;;;;5010958;28;20048;-71
2022/08/29 13:49:51;;;;;;;1.60;1.00;;;43.30;58.90;;;;;;5011722;28;20385;-70
2022/08/29 13:52:56;;;;;;;1.30;1.15;;;43.30;59.30;;;;;;5011451;28;20420;-72
2022/08/29 13:56:01;;;;;;;1.63;1.00;;;42.70;60.60;;;;;;5011692;28;20045;-70
2022/08/29 13:59:05;;;;;;;1.48;0.98;;;37.70;63.80;;;;;;5011873;28;20174;-71
2022/08/29 14:02:13;;;;;;;1.63;1.10;;;37.80;64.30;;;;;;5011484;28;20045;-71
2022/08/29 14:05:36;;;;;;;2.97;1.02;;;37.70;63.60;;;;;;5010886;28;20041;-71
2022/08/29 14:08:59;;;;;;;2.72;1.10;;;37.70;64.70;;;;;;5011384;28;20077;-71
2022/08/29 14:12:04;;;;;;;3.63;1.30;;;38.20;63.60;;;;;;5011304;28;20499;-70
2022/08/29 14:15:10;;;;;;;1.92;1.20;;;38.40;63.20;;;;;;5010960;28;20041;-71
2022/08/29 14:18:14;;;;;;;2.88;1.42;;;38.60;63.50;;;;;;5010865;28;20056;-69
2022/08/29 14:21:37;;;;;;;3.55;1.55;;;38.20;63.70;;;;;;5009955;28;20401;-71
2022/08/29 14:24:41;;;;;;;1.15;0.90;;;38.20;64.70;;;;;;5010545;28;20045;-70
2022/08/29 14:27:46;;;;;;;2.63;0.98;;;38.00;63.80;;;;;;5010897;28;20041;-71
2022/08/29 14:30:50;;;;;;;2.20;1.02;;;35.30;64.70;;;;;;5010964;28;20066;-71
2022/08/29 14:33:54;;;;;;;1.73;1.10;;;36.00;66.10;;;;;;5010678;28;20504;-70
2022/08/29 14:36:58;;;;;;;2.90;1.45;;;36.60;66.30;;;;;;5011005;28;20401;-71
2022/08/29 14:40:05;;;;;;;4.85;1.30;;;36.00;65.10;;;;;;5011331;28;20041;-70
2022/08/29 14:43:09;;;;;;;2.75;1.52;;;35.70;64.70;;;;;;5010681;28;20065;-71
2022/08/29 14:46:13;;;;;;;2.38;0.90;;;36.20;65.60;;;;;;5010330;28;20049;-70
2022/08/29 14:49:37;;;;;;;1.85;1.15;;;36.60;65.30;;;;;;5010934;28;20048;-70
2022/08/29 14:52:59;;;;;;;3.45;1.30;;;36.90;64.80;;;;;;5010648;28;20056;-70
2022/08/29 14:59:26;;;;;;;1.90;1.08;;;36.90;65.20;;;;;;5010574;28;20045;-71
2022/08/29 15:02:30;;;;;;;2.15;1.08;;;36.90;66.50;;;;;;5010297;28;20044;-71
2022/08/29 15:05:34;;;;;;;1.30;1.10;;;35.70;65.40;;;;;;5010173;28;20040;-72
2022/08/29 15:08:39;;;;;;;3.35;1.20;;;35.40;66.70;;;;;;5010211;28;20041;-69
2022/08/29 15:11:43;;;;;;;4.45;1.58;;;34.80;67.20;;;;;;5010436;28;20516;-71
2022/08/29 15:14:47;;;;;;;2.25;1.20;;;35.10;69.90;;;;;;5010018;28;20041;-71
2022/08/29 15:21:14;;;;;;;2.53;1.45;;;35.20;69.10;;;;;;5010414;28;20117;-70
2022/08/29 15:24:18;;;;;;;2.17;1.20;;;35.30;68.40;;;;;;5010108;28;20040;-70
2022/08/29 15:31:04;;;;;;;1.25;1.02;;;34.70;70.90;;;;;;5010294;28;20049;-70
2022/08/29 15:34:08;;;;;;;3.28;1.50;;;34.30;69.60;;;;;;5020376;28;20049;-70
2022/08/29 15:37:12;;;;;;;4.90;1.70;;;34.20;71.50;;;;;;5010120;28;20045;-69
2022/08/29 15:44:00;;;;;;;5.35;1.60;;;33.50;74.20;;;;;;5009786;28;20057;-71
2022/08/29 15:47:05;;;;;;;5.63;1.70;;;33.20;75.20;;;;;;5010175;28;20049;-70
2022/08/29 15:50:09;;;;;;;3.20;1.90;;;33.00;76.60;;;;;;5010379;28;20036;-70
2022/08/29 15:53:13;;;;;;;5.47;1.75;;;32.70;77.70;;;;;;5009825;28;20052;-70
2022/08/29 15:56:17;;;;;;;4.15;2.00;;;32.50;78.10;;;;;;5011084;28;20138;-70
2022/08/29 15:59:41;;;;;;;4.45;1.90;;;32.30;78.70;;;;;;5013415;28;20204;-70
2022/08/29 16:02:45;;;;;;;2.92;1.80;;;32.00;79.70;;;;;;5013768;28;20049;-71
2022/08/29 16:05:50;;;;;;;5.38;2.00;;;31.80;80.80;;;;;;5013858;28;20045;-71
2022/08/29 16:08:54;;;;;;;2.60;1.73;;;31.70;80.70;;;;;;5013584;28;20491;-70
2022/08/29 16:11:58;;;;;;;3.45;1.90;;;31.60;81.10;;;;;;5013272;28;20049;-70
2022/08/29 16:15:03;;;;;;;3.22;1.80;;;31.70;80.60;;;;;;5013053;28;20052;-70
2022/08/29 16:18:07;;;;;;;2.78;1.73;;;31.80;80.80;;;;;;5012952;28;20045;-70
2022/08/29 16:21:11;;;;;;;3.35;1.67;;;31.80;81.20;;;;;;5013317;28;20049;-70
2022/08/29 16:24:16;;;;;;;4.43;2.10;;;31.70;80.20;;;;;;5012608;28;20053;-70
2022/08/29 16:31:39;;;;;;;4.28;1.88;;;31.70;81.60;;;;;;5013254;28;20061;-70
2022/08/29 16:34:43;;;;;;;4.95;1.77;;;31.80;80.90;;;;;;5012480;28;20049;-70
2022/08/29 16:37:47;;;;;;;4.38;2.03;;;31.90;81.10;;;;;;5013348;28;20049;-70
2022/08/29 16:40:51;;;;;;;4.15;2.00;;;32.00;81.60;;;;;;5012827;28;20053;-70
2022/08/29 16:43:55;;;;;;;5.63;1.63;;;31.90;81.70;;;;;;5012084;28;20037;-70
2022/08/29 16:47:00;;;;;;;3.45;1.58;;;31.90;82.10;;;;;;5012979;28;20049;-70
2022/08/29 16:53:29;;;;;;;7.25;2.40;;;32.00;80.50;;;;;;5013252;28;20778;-70
2022/08/29 16:56:33;;;;;;;5.38;1.90;;;32.00;80.80;;;;;;5013760;28;20049;-70
2022/08/29 16:59:37;;;;;;;4.50;1.83;;;31.90;80.50;;;;;;5013264;28;20053;-70
2022/08/29 17:02:41;;;;;;;6.20;1.98;;;31.90;81.30;;;;;;5012916;28;20045;-70
2022/08/29 17:06:05;;;;;;;4.60;1.70;;;31.70;81.90;;;;;;5013154;28;20049;-70
2022/08/29 17:18:21;;;;;;;5.10;2.10;;;31.00;83.70;;;;;;5013021;28;20045;-70
2022/08/29 17:21:26;;;;;;;2.25;1.95;;;30.80;83.80;;;;;;5013269;28;20045;-71
2022/08/29 17:27:52;;;;;;;5.10;2.28;;;30.50;83.60;;;;;;5012792;28;20487;-70
2022/08/29 17:30:57;;;;;;;7.55;2.30;;;30.40;84.10;;;;;;5012596;28;20040;-69
2022/08/29 17:34:04;;;;;;;7.15;2.50;;;30.20;84.60;;;;;;5012843;28;20044;-70
2022/08/29 17:37:26;;;;;;;6.32;2.40;;;30.10;85.50;;;;;;5012632;28;20048;-70
2022/08/29 17:40:31;;;;;;;3.05;2.20;;;29.80;86.40;;;;;;5012426;28;20256;-70
2022/08/29 17:43:35;;;;;;;4.07;2.60;;;29.60;86.00;;;;;;5011889;28;20045;-70
2022/08/29 17:46:39;;;;;;;4.93;2.22;;;29.50;86.50;;;;;;5012671;28;20049;-70
2022/08/29 17:49:43;;;;;;;8.63;2.80;;;29.30;86.50;;;;;;5012321;28;20060;-70
2022/08/29 17:53:06;;;;;;;4.05;2.45;;;29.20;87.20;;;;;;5012435;28;20511;-70